Time;durP1;ratioP1;P1;durP2;ratioP2;P2;SDS_P1;SDS_P2;PMS_P1;PMS_P2;Temp;Humidity;BMP_temperature;BMP_pressure;BME280_temperature;BME280_humidity;BME280_pressure;Samples;Min_cycle;Max_cycle;Signal;HPM_P1;HPM_P2
2022/11/30 00:00:59;;;;;;;7.53;5.05;;;10.00;84.80;;;;;;4992114;28;20085;-65
2022/11/30 00:03:25;;;;;;;5.82;4.53;;;10.00;84.80;;;;;;4993730;28;20027;-66
2022/11/30 00:05:51;;;;;;;4.55;3.67;;;10.00;84.70;;;;;;4998596;28;20052;-66
2022/11/30 00:08:17;;;;;;;6.32;4.60;;;10.00;84.60;;;;;;5000290;28;20519;-66
2022/11/30 00:10:43;;;;;;;8.45;5.07;;;10.00;84.60;;;;;;4997676;28;20432;-65
2022/11/30 00:13:09;;;;;;;7.00;4.38;;;10.00;84.60;;;;;;4997619;28;20034;-65
2022/11/30 00:15:36;;;;;;;4.88;3.72;;;10.00;84.60;;;;;;4992034;28;20033;-66
2022/11/30 00:18:02;;;;;;;9.85;4.78;;;10.00;84.60;;;;;;5000851;28;20037;-66
2022/11/30 00:20:28;;;;;;;5.63;3.88;;;10.00;84.50;;;;;;4992395;28;20114;-65
2022/11/30 00:22:56;;;;;;;5.45;4.20;;;10.00;84.50;;;;;;4992247;28;20506;-66
2022/11/30 00:25:22;;;;;;;5.55;3.83;;;10.00;84.50;;;;;;4997238;28;20026;-66
2022/11/30 00:27:48;;;;;;;5.72;4.18;;;10.00;84.50;;;;;;5001778;28;20065;-62
2022/11/30 00:30:14;;;;;;;8.55;5.32;;;9.90;84.40;;;;;;5003186;28;20512;-62
2022/11/30 00:32:40;;;;;;;8.52;5.03;;;9.90;84.40;;;;;;4993494;28;20054;-62
2022/11/30 00:35:06;;;;;;;7.82;5.13;;;9.90;84.40;;;;;;4996100;28;20398;-62
2022/11/30 00:37:33;;;;;;;6.38;3.92;;;9.90;84.40;;;;;;4991546;28;20077;-63
2022/11/30 00:39:59;;;;;;;6.22;4.55;;;9.90;84.30;;;;;;4992477;28;20026;-62
2022/11/30 00:42:24;;;;;;;7.05;5.05;;;9.90;84.20;;;;;;5003537;28;20085;-62
2022/11/30 00:44:50;;;;;;;5.15;3.67;;;10.00;84.10;;;;;;4986137;28;20034;-62
2022/11/30 00:47:16;;;;;;;7.57;4.57;;;9.90;84.00;;;;;;4991353;28;20030;-66
2022/11/30 00:49:41;;;;;;;7.55;4.63;;;9.90;84.00;;;;;;4987016;28;20476;-62
2022/11/30 00:52:07;;;;;;;9.43;5.55;;;9.90;83.90;;;;;;5022769;28;20077;-62
2022/11/30 00:54:33;;;;;;;7.90;4.50;;;9.90;83.90;;;;;;5021469;28;20039;-66
2022/11/30 00:56:58;;;;;;;8.52;5.75;;;9.80;83.80;;;;;;4989770;28;20453;-66
2022/11/30 00:59:24;;;;;;;8.10;4.50;;;9.90;84.00;;;;;;4993511;28;20036;-66
2022/11/30 01:01:53;;;;;;;9.02;5.50;;;9.80;84.00;;;;;;4998132;28;20026;-66
2022/11/30 01:04:18;;;;;;;8.13;5.35;;;9.80;84.10;;;;;;5004171;28;20026;-66
2022/11/30 01:06:44;;;;;;;8.20;4.43;;;9.80;84.10;;;;;;4999465;28;20096;-66
2022/11/30 01:09:09;;;;;;;8.63;5.28;;;9.80;84.20;;;;;;5007321;28;20029;-62
2022/11/30 01:11:35;;;;;;;8.38;4.63;;;9.80;84.20;;;;;;5003501;28;20034;-62
2022/11/30 01:14:01;;;;;;;7.28;5.15;;;9.80;84.10;;;;;;4996754;28;20084;-66
2022/11/30 01:16:31;;;;;;;9.13;5.65;;;9.80;84.00;;;;;;5003059;28;20092;-66
2022/11/30 01:18:57;;;;;;;6.88;5.30;;;9.80;84.00;;;;;;5004949;28;20512;-66
2022/11/30 01:21:26;;;;;;;8.63;5.25;;;9.80;84.00;;;;;;5006575;28;20038;-66
2022/11/30 01:23:52;;;;;;;6.72;4.85;;;9.80;84.10;;;;;;5012850;28;20017;-66
2022/11/30 01:26:18;;;;;;;9.43;5.00;;;9.80;84.10;;;;;;5013051;28;20030;-66
2022/11/30 01:28:48;;;;;;;9.35;4.70;;;9.70;84.00;;;;;;5010737;28;20076;-62
2022/11/30 01:31:14;;;;;;;6.68;4.88;;;9.70;83.90;;;;;;5011674;28;20045;-63
2022/11/30 01:33:40;;;;;;;8.95;5.45;;;9.80;83.90;;;;;;5013159;28;20026;-62
2022/11/30 01:36:12;;;;;;;7.38;4.57;;;9.70;83.80;;;;;;4999425;28;20138;-63
2022/11/30 01:38:43;;;;;;;5.53;4.60;;;9.70;83.80;;;;;;5009591;28;20030;-62
2022/11/30 01:41:11;;;;;;;10.05;6.57;;;9.70;83.70;;;;;;5012251;28;20026;-63
2022/11/30 01:43:44;;;;;;;9.45;5.70;;;9.70;83.70;;;;;;4995488;28;20417;-62
2022/11/30 01:46:31;;;;;;;8.25;5.35;;;9.70;83.70;;;;;;4985643;28;20370;-63
2022/11/30 01:49:09;;;;;;;7.97;5.35;;;9.70;83.80;;;;;;5000436;28;20022;-63
2022/11/30 01:52:04;;;;;;;9.07;5.95;;;9.60;83.80;;;;;;4999878;28;20524;-62
2022/11/30 01:54:39;;;;;;;9.35;6.13;;;9.60;83.80;;;;;;5000311;28;20048;-63
2022/11/30 01:57:19;;;;;;;11.40;5.80;;;9.60;83.80;;;;;;5003104;28;20034;-62
2022/11/30 01:59:47;;;;;;;8.52;5.57;;;9.60;83.80;;;;;;4994435;28;20038;-62
2022/11/30 02:02:12;;;;;;;9.88;5.40;;;9.60;83.80;;;;;;4999611;28;20465;-62
2022/11/30 02:04:39;;;;;;;6.53;4.70;;;9.60;83.90;;;;;;5006784;28;20026;-62
2022/11/30 02:07:06;;;;;;;7.53;5.22;;;9.60;83.90;;;;;;5007351;28;20034;-63
2022/11/30 02:09:40;;;;;;;9.43;5.97;;;9.60;83.80;;;;;;4999291;28;20097;-62
2022/11/30 02:12:10;;;;;;;8.05;5.72;;;9.60;83.80;;;;;;5007689;28;20126;-63
2022/11/30 02:14:49;;;;;;;8.40;5.15;;;9.60;83.80;;;;;;5001727;28;20038;-62
2022/11/30 02:17:51;;;;;;;9.90;5.78;;;9.60;83.90;;;;;;5004860;28;20117;-62
2022/11/30 02:20:33;;;;;;;7.30;5.45;;;9.60;83.80;;;;;;4991682;28;20066;-62
2022/11/30 02:23:26;;;;;;;8.02;4.97;;;9.60;84.00;;;;;;4999158;28;20464;-62
2022/11/30 02:25:56;;;;;;;;;;;9.60;83.90;;;;;;5003212;28;20030;-62
2022/11/30 02:28:49;;;;;;;9.95;5.50;;;9.50;83.90;;;;;;4998892;28;19906;-62
2022/11/30 02:31:20;;;;;;;7.57;5.68;;;9.60;83.90;;;;;;4994022;28;20030;-62
2022/11/30 02:33:48;;;;;;;7.90;5.30;;;9.50;84.00;;;;;;4995196;28;20025;-62
2022/11/30 02:36:15;;;;;;;9.55;6.15;;;9.50;84.00;;;;;;4998446;28;20109;-62
2022/11/30 02:38:41;;;;;;;8.60;5.60;;;9.50;84.00;;;;;;4992837;28;20030;-62
2022/11/30 02:41:07;;;;;;;10.77;5.88;;;9.50;84.00;;;;;;4995974;28;20035;-62
2022/11/30 02:43:34;;;;;;;7.65;5.20;;;9.50;84.00;;;;;;4995457;28;20027;-62
2022/11/30 02:45:59;;;;;;;9.82;5.30;;;9.60;83.90;;;;;;4993963;28;20037;-67
2022/11/30 02:48:43;;;;;;;8.57;4.88;;;9.60;83.90;;;;;;4998957;28;20034;-66
2022/11/30 02:51:13;;;;;;;8.27;5.18;;;9.60;83.90;;;;;;4993620;28;20425;-66
2022/11/30 02:53:39;;;;;;;7.15;5.10;;;9.50;84.00;;;;;;4992917;28;20033;-62
2022/11/30 02:56:05;;;;;;;7.50;4.47;;;9.50;83.90;;;;;;4995039;28;20046;-62
2022/11/30 02:58:31;;;;;;;8.15;5.03;;;9.60;84.00;;;;;;4996904;28;20037;-62
2022/11/30 03:00:57;;;;;;;8.02;5.90;;;9.50;84.00;;;;;;5006730;28;20029;-62
2022/11/30 03:03:22;;;;;;;6.82;5.03;;;9.60;83.90;;;;;;4998853;28;20516;-62
2022/11/30 03:05:48;;;;;;;8.15;5.25;;;9.50;83.90;;;;;;4998668;28;20033;-66
2022/11/30 03:08:13;;;;;;;7.22;5.00;;;9.50;83.90;;;;;;4993485;28;20026;-66
2022/11/30 03:10:39;;;;;;;9.43;5.30;;;9.50;83.90;;;;;;4994020;28;20026;-66
2022/11/30 03:13:05;;;;;;;8.10;4.88;;;9.50;83.90;;;;;;4993659;28;20026;-66
2022/11/30 03:15:30;;;;;;;9.35;5.30;;;9.50;83.80;;;;;;4994044;28;20489;-66
2022/11/30 03:18:00;;;;;;;9.05;5.28;;;9.50;83.80;;;;;;4998369;28;20037;-66
2022/11/30 03:20:26;;;;;;;10.93;5.45;;;9.50;83.80;;;;;;4994140;28;20023;-66
2022/11/30 03:22:52;;;;;;;8.60;4.72;;;9.50;83.80;;;;;;5026492;28;20033;-66
2022/11/30 03:25:17;;;;;;;7.38;5.30;;;9.40;83.70;;;;;;5026529;28;20121;-66
2022/11/30 03:27:43;;;;;;;9.00;5.47;;;9.50;83.70;;;;;;5023958;28;20498;-62
2022/11/30 03:30:09;;;;;;;8.48;4.88;;;9.40;83.50;;;;;;4999373;28;20413;-62
2022/11/30 03:32:35;;;;;;;9.65;5.03;;;9.40;83.50;;;;;;5007505;28;20077;-63
2022/11/30 03:35:01;;;;;;;8.18;4.43;;;9.30;83.50;;;;;;4993090;28;20056;-62
2022/11/30 03:37:27;;;;;;;9.27;5.15;;;9.30;83.40;;;;;;5002346;28;20117;-63
2022/11/30 03:39:52;;;;;;;8.88;4.55;;;9.30;83.40;;;;;;4990809;28;20030;-65
2022/11/30 03:42:18;;;;;;;7.47;4.28;;;9.20;83.50;;;;;;4991819;28;20041;-63
2022/11/30 03:44:43;;;;;;;5.80;3.85;;;9.10;83.50;;;;;;4991950;28;20030;-63
2022/11/30 03:47:09;;;;;;;7.32;4.82;;;9.10;83.40;;;;;;5021416;28;20042;-63
2022/11/30 03:49:35;;;;;;;5.13;4.13;;;9.00;83.40;;;;;;4991502;28;20383;-63
2022/11/30 03:52:00;;;;;;;6.70;4.32;;;9.00;83.30;;;;;;4996938;28;20037;-63
2022/11/30 03:54:26;;;;;;;8.25;4.88;;;8.90;83.30;;;;;;5010465;28;20088;-63
2022/11/30 03:56:52;;;;;;;7.97;4.45;;;8.80;83.20;;;;;;5015554;28;20120;-63
2022/11/30 03:59:17;;;;;;;5.55;3.25;;;8.70;83.20;;;;;;5006390;28;20058;-63
2022/11/30 04:01:43;;;;;;;6.45;4.90;;;8.70;83.20;;;;;;5001668;28;20080;-63
2022/11/30 04:04:10;;;;;;;7.18;4.75;;;8.60;83.10;;;;;;4995507;28;20440;-63
2022/11/30 04:06:36;;;;;;;5.03;3.90;;;8.50;83.00;;;;;;4999361;28;20073;-63
2022/11/30 04:09:02;;;;;;;7.53;4.75;;;8.50;83.00;;;;;;4999237;28;20095;-63
2022/11/30 04:11:28;;;;;;;7.72;4.25;;;8.40;83.00;;;;;;4992434;28;20433;-63
2022/11/30 04:13:54;;;;;;;6.93;4.97;;;8.40;83.00;;;;;;4995757;28;20448;-63
2022/11/30 04:16:20;;;;;;;4.25;3.35;;;8.40;82.90;;;;;;5022982;28;20057;-63
2022/11/30 04:18:45;;;;;;;7.53;4.72;;;8.30;82.70;;;;;;4980392;28;20054;-63
2022/11/30 04:21:11;;;;;;;7.25;4.75;;;8.20;82.50;;;;;;5001063;28;20413;-63
2022/11/30 04:23:38;;;;;;;7.40;4.75;;;8.10;82.50;;;;;;4995335;28;20130;-63
2022/11/30 04:26:06;;;;;;;6.30;3.53;;;8.10;82.60;;;;;;4992802;28;20030;-63
2022/11/30 04:28:33;;;;;;;6.80;3.92;;;8.00;82.60;;;;;;5002647;28;20065;-63
2022/11/30 04:30:59;;;;;;;7.80;4.25;;;8.00;82.50;;;;;;5008758;28;20070;-63
2022/11/30 04:33:26;;;;;;;7.75;3.58;;;7.90;82.50;;;;;;5009225;28;20038;-63
2022/11/30 04:35:55;;;;;;;5.03;3.65;;;7.90;82.30;;;;;;5001664;28;20044;-67
2022/11/30 04:38:21;;;;;;;8.52;4.50;;;7.80;82.30;;;;;;5003680;28;20026;-67
2022/11/30 04:40:46;;;;;;;7.72;4.88;;;7.80;82.10;;;;;;5000665;28;20037;-67
2022/11/30 04:43:12;;;;;;;11.55;5.57;;;7.80;82.20;;;;;;4990755;28;20037;-67
2022/11/30 04:45:39;;;;;;;7.63;4.90;;;7.70;82.20;;;;;;4998370;28;20026;-67
2022/11/30 04:48:05;;;;;;;8.43;5.63;;;7.60;82.30;;;;;;5010685;28;20091;-67
2022/11/30 04:50:31;;;;;;;8.40;4.68;;;7.60;82.40;;;;;;5007934;28;20128;-67
2022/11/30 04:52:57;;;;;;;10.07;5.97;;;7.60;82.50;;;;;;5010066;28;20026;-67
2022/11/30 04:55:23;;;;;;;7.50;4.80;;;7.50;82.50;;;;;;5006009;28;20041;-67
2022/11/30 04:57:49;;;;;;;7.10;4.55;;;7.50;82.60;;;;;;4988536;28;20116;-67
2022/11/30 05:00:16;;;;;;;12.93;5.65;;;7.50;82.60;;;;;;5013834;28;20188;-67
2022/11/30 05:02:42;;;;;;;7.05;4.35;;;7.50;82.60;;;;;;4997664;28;20544;-67
2022/11/30 05:05:09;;;;;;;9.10;4.95;;;7.50;82.50;;;;;;4994769;28;20102;-67
2022/11/30 05:07:34;;;;;;;6.20;4.13;;;7.40;82.40;;;;;;5005028;28;20030;-67
2022/11/30 05:10:00;;;;;;;11.88;5.35;;;7.40;82.40;;;;;;4995430;28;20100;-67
2022/11/30 05:12:26;;;;;;;8.35;4.35;;;7.40;82.40;;;;;;5010806;28;20034;-67
2022/11/30 05:14:51;;;;;;;4.90;3.95;;;7.40;82.40;;;;;;5008080;28;20034;-63
2022/11/30 05:17:17;;;;;;;13.20;4.68;;;7.40;82.30;;;;;;5005369;28;20038;-62
2022/11/30 05:19:43;;;;;;;7.60;3.75;;;7.30;82.20;;;;;;5004599;28;20022;-63
2022/11/30 05:22:08;;;;;;;5.25;3.45;;;7.30;82.20;;;;;;4997026;28;20038;-63
2022/11/30 05:24:34;;;;;;;6.60;5.00;;;7.30;82.30;;;;;;4992292;28;20108;-63
2022/11/30 05:27:00;;;;;;;10.13;5.60;;;7.30;82.30;;;;;;4992995;28;20034;-63
2022/11/30 05:29:25;;;;;;;7.75;5.05;;;7.30;82.60;;;;;;4998093;28;20034;-63
2022/11/30 05:31:51;;;;;;;7.47;5.20;;;7.30;82.80;;;;;;5000400;28;20074;-63
2022/11/30 05:34:17;;;;;;;7.15;4.25;;;7.30;83.10;;;;;;5031146;28;20026;-63
2022/11/30 05:36:42;;;;;;;4.25;3.45;;;7.30;83.40;;;;;;4988544;28;20481;-67
2022/11/30 05:39:08;;;;;;;7.95;4.55;;;7.40;83.60;;;;;;4999702;28;20030;-67
2022/11/30 05:41:34;;;;;;;9.25;4.43;;;7.40;83.80;;;;;;4996675;28;20040;-61
2022/11/30 05:44:00;;;;;;;5.70;3.85;;;7.40;83.80;;;;;;4999735;28;20026;-61
2022/11/30 05:46:25;;;;;;;5.47;3.22;;;7.40;83.80;;;;;;4995626;28;20030;-62
2022/11/30 05:48:51;;;;;;;7.85;3.85;;;7.40;83.70;;;;;;4997235;28;20465;-62
2022/11/30 05:51:19;;;;;;;5.07;3.80;;;7.40;83.60;;;;;;5001377;28;20056;-63
2022/11/30 05:53:45;;;;;;;6.40;4.15;;;7.40;83.60;;;;;;4994969;28;20022;-63
2022/11/30 05:56:18;;;;;;;6.53;3.65;;;7.40;83.80;;;;;;5024069;28;20454;-62
2022/11/30 05:58:45;;;;;;;6.10;3.20;;;7.40;83.80;;;;;;4993975;28;20025;-62
2022/11/30 06:01:37;;;;;;;5.53;3.58;;;7.40;83.90;;;;;;4993335;28;20023;-66
2022/11/30 06:04:06;;;;;;;6.47;4.15;;;7.40;83.70;;;;;;4993450;28;20413;-66
2022/11/30 06:06:32;;;;;;;8.57;4.30;;;7.40;83.90;;;;;;4992636;28;20089;-67
2022/11/30 06:08:57;;;;;;;6.30;3.60;;;7.40;83.90;;;;;;4995530;28;20469;-66
2022/11/30 06:11:23;;;;;;;5.78;3.40;;;7.40;83.90;;;;;;5004775;28;20033;-66
2022/11/30 06:13:49;;;;;;;6.22;3.83;;;7.40;83.90;;;;;;5004105;28;20556;-67
2022/11/30 06:16:14;;;;;;;5.15;3.05;;;7.40;83.90;;;;;;4997864;28;20117;-67
2022/11/30 06:18:40;;;;;;;4.75;3.72;;;7.30;83.80;;;;;;5006645;28;20029;-67
2022/11/30 06:21:09;;;;;;;4.70;3.78;;;7.30;83.80;;;;;;4999534;28;20050;-66
2022/11/30 06:23:35;;;;;;;5.50;3.20;;;7.30;83.90;;;;;;5002939;28;20112;-68
2022/11/30 06:26:06;;;;;;;6.32;3.47;;;7.20;84.00;;;;;;5000537;28;20031;-66
2022/11/30 06:28:32;;;;;;;9.10;3.55;;;7.20;83.90;;;;;;4997214;28;20486;-70
2022/11/30 06:30:59;;;;;;;5.10;3.47;;;7.20;83.80;;;;;;5017563;28;20442;-67
2022/11/30 06:33:25;;;;;;;4.03;2.95;;;7.10;83.60;;;;;;4993931;28;20126;-68
2022/11/30 06:35:50;;;;;;;5.00;3.22;;;7.10;83.50;;;;;;4998720;28;20188;-66
2022/11/30 06:38:16;;;;;;;4.28;2.67;;;7.00;83.20;;;;;;4997948;28;20061;-66
2022/11/30 06:40:42;;;;;;;5.50;3.28;;;7.00;83.30;;;;;;4998422;28;20026;-66
2022/11/30 06:43:08;;;;;;;3.85;3.22;;;7.00;83.30;;;;;;4997178;28;20030;-66
2022/11/30 06:45:34;;;;;;;3.75;2.55;;;7.00;83.20;;;;;;4994555;28;20131;-66
2022/11/30 06:48:00;;;;;;;3.75;2.85;;;6.90;83.10;;;;;;4993896;28;20030;-66
2022/11/30 06:50:25;;;;;;;5.00;3.00;;;6.90;83.10;;;;;;4995699;28;20117;-66
2022/11/30 06:52:51;;;;;;;3.05;2.42;;;6.80;82.90;;;;;;4999259;28;20033;-66
2022/11/30 06:55:18;;;;;;;4.45;3.17;;;6.80;82.70;;;;;;4999872;28;20559;-67
2022/11/30 06:57:44;;;;;;;2.95;1.92;;;6.70;82.60;;;;;;4995571;28;20524;-66
2022/11/30 07:00:11;;;;;;;4.20;2.63;;;6.70;82.60;;;;;;4995787;28;20023;-66
2022/11/30 07:02:37;;;;;;;5.00;2.75;;;6.70;82.50;;;;;;4994860;28;20034;-66
2022/11/30 07:05:03;;;;;;;4.82;3.20;;;6.60;82.40;;;;;;4993429;28;20082;-66
2022/11/30 07:07:29;;;;;;;4.32;2.58;;;6.60;82.20;;;;;;4993588;28;20038;-66
2022/11/30 07:09:55;;;;;;;3.95;2.63;;;6.60;82.20;;;;;;4991303;28;20114;-67
2022/11/30 07:12:21;;;;;;;4.50;2.88;;;6.60;82.30;;;;;;4996427;28;20469;-66
2022/11/30 07:14:46;;;;;;;7.25;2.97;;;6.50;82.30;;;;;;5008267;28;20038;-66
2022/11/30 07:17:12;;;;;;;4.57;2.50;;;6.50;83.00;;;;;;4998270;28;20041;-66
2022/11/30 07:19:38;;;;;;;3.13;2.45;;;6.50;82.30;;;;;;4993602;28;20035;-67
2022/11/30 07:22:03;;;;;;;3.55;2.45;;;6.50;82.30;;;;;;4994368;28;20110;-66
2022/11/30 07:27:13;;;;;;;3.38;2.85;;;6.40;82.30;;;;;;4994906;28;20069;-65
2022/11/30 07:29:39;;;;;;;2.33;1.83;;;6.40;82.30;;;;;;5006309;28;20065;-66
2022/11/30 07:32:05;;;;;;;2.63;2.15;;;6.40;82.80;;;;;;5027494;28;20041;-66
2022/11/30 07:34:30;;;;;;;2.92;2.10;;;6.40;82.20;;;;;;5004100;28;20097;-66
2022/11/30 07:36:56;;;;;;;2.20;1.77;;;6.40;82.10;;;;;;4999271;28;20456;-66
2022/11/30 07:39:23;;;;;;;3.15;2.22;;;6.40;82.00;;;;;;5007631;28;20034;-65
2022/11/30 07:41:49;;;;;;;3.85;1.98;;;6.40;81.90;;;;;;4996539;28;20030;-66
2022/11/30 07:44:14;;;;;;;2.65;1.95;;;6.40;81.90;;;;;;4991697;28;20034;-65
2022/11/30 07:46:40;;;;;;;3.10;2.13;;;6.40;81.90;;;;;;4981323;28;20600;-63
2022/11/30 07:49:08;;;;;;;3.25;2.45;;;6.40;81.80;;;;;;5023109;28;20069;-63
2022/11/30 07:51:34;;;;;;;7.25;1.73;;;6.40;81.90;;;;;;5000420;28;20792;-63
2022/11/30 07:54:00;;;;;;;4.28;2.95;;;6.50;82.00;;;;;;4993912;28;20026;-63
2022/11/30 07:56:27;;;;;;;3.78;2.47;;;6.50;82.10;;;;;;4992718;28;20521;-63
2022/11/30 07:58:55;;;;;;;3.58;2.50;;;6.60;82.30;;;;;;5003776;28;20034;-66
2022/11/30 08:01:23;;;;;;;3.33;2.72;;;6.60;82.40;;;;;;4992613;28;20023;-66
2022/11/30 08:03:50;;;;;;;3.17;2.45;;;6.70;82.40;;;;;;4994251;28;20443;-66
2022/11/30 08:06:21;;;;;;;2.85;1.95;;;6.80;82.60;;;;;;4993688;28;20026;-66
2022/11/30 08:08:49;;;;;;;2.97;2.63;;;6.80;82.60;;;;;;4992298;28;20030;-66
2022/11/30 08:11:21;;;;;;;3.97;2.78;;;6.90;82.60;;;;;;4995314;28;20041;-67
2022/11/30 08:13:47;;;;;;;2.90;2.33;;;6.90;82.70;;;;;;5022971;28;20026;-67
2022/11/30 08:16:17;;;;;;;2.47;2.28;;;7.00;82.80;;;;;;4992267;28;20057;-67
2022/11/30 08:18:43;;;;;;;3.63;2.45;;;7.00;82.70;;;;;;4991961;28;20032;-66
2022/11/30 08:21:12;;;;;;;3.45;2.63;;;7.00;82.80;;;;;;4989723;28;20031;-63
2022/11/30 08:23:40;;;;;;;3.58;3.10;;;7.10;83.00;;;;;;4992352;28;20026;-63
2022/11/30 08:26:18;;;;;;;3.50;2.95;;;7.20;83.00;;;;;;4993232;28;20018;-63
2022/11/30 08:28:44;;;;;;;3.88;3.00;;;7.30;83.00;;;;;;4983511;28;20076;-63
2022/11/30 08:31:17;;;;;;;6.15;4.38;;;7.30;83.00;;;;;;4989046;28;20033;-64
2022/11/30 08:33:42;;;;;;;6.28;3.60;;;7.40;83.00;;;;;;4982588;28;20092;-64
2022/11/30 08:36:16;;;;;;;9.48;6.05;;;7.50;83.10;;;;;;4984720;28;20510;-63
2022/11/30 08:38:43;;;;;;;5.25;3.97;;;7.60;83.20;;;;;;4984624;28;20040;-64
2022/11/30 08:41:11;;;;;;;13.45;5.15;;;7.60;83.20;;;;;;4991894;28;20097;-64
2022/11/30 08:43:37;;;;;;;9.00;5.68;;;7.70;83.30;;;;;;4997526;28;20346;-64
2022/11/30 08:46:06;;;;;;;8.35;5.60;;;7.70;83.30;;;;;;5017622;28;20427;-64
2022/11/30 08:48:33;;;;;;;6.18;4.60;;;7.80;83.40;;;;;;5004384;28;20026;-63
2022/11/30 08:51:18;;;;;;;8.95;5.10;;;7.80;83.30;;;;;;4990447;28;20855;-64
2022/11/30 08:53:45;;;;;;;8.05;5.57;;;7.90;83.30;;;;;;4989571;28;20101;-64
2022/11/30 08:56:17;;;;;;;9.55;5.60;;;7.90;83.50;;;;;;4992701;28;20038;-64
2022/11/30 08:58:43;;;;;;;13.70;5.13;;;8.00;83.60;;;;;;4991072;28;20037;-64
2022/11/30 09:01:14;;;;;;;7.15;4.55;;;8.00;83.50;;;;;;4990288;28;20030;-64
2022/11/30 09:03:41;;;;;;;8.70;6.22;;;8.10;83.60;;;;;;4996128;28;20136;-64
2022/11/30 09:06:13;;;;;;;9.35;5.90;;;8.10;83.60;;;;;;4988297;28;20085;-64
2022/11/30 09:08:40;;;;;;;8.90;6.25;;;8.20;83.70;;;;;;4989577;28;20038;-64
2022/11/30 09:11:11;;;;;;;8.18;5.82;;;8.20;83.70;;;;;;5003470;28;20080;-63
2022/11/30 09:13:37;;;;;;;7.80;4.63;;;8.20;83.80;;;;;;4999499;28;20030;-64
2022/11/30 09:16:04;;;;;;;10.18;7.00;;;8.30;83.80;;;;;;4988815;28;20030;-64
2022/11/30 09:18:30;;;;;;;11.10;7.13;;;8.30;83.70;;;;;;4989711;28;20048;-64
2022/11/30 09:21:04;;;;;;;8.20;6.35;;;8.40;83.80;;;;;;4996752;28;20117;-64
2022/11/30 09:23:30;;;;;;;11.52;6.93;;;8.40;83.90;;;;;;4995407;28;20380;-64
2022/11/30 09:25:57;;;;;;;11.82;7.03;;;8.40;83.90;;;;;;4993636;28;20026;-64
2022/11/30 09:28:23;;;;;;;12.73;7.75;;;8.50;83.90;;;;;;4990004;28;20399;-64
2022/11/30 09:30:49;;;;;;;11.00;6.30;;;8.50;83.90;;;;;;4991309;28;20057;-64
2022/11/30 09:33:15;;;;;;;7.38;6.00;;;8.50;83.90;;;;;;4989018;28;20046;-63
2022/11/30 09:35:40;;;;;;;10.10;6.90;;;8.60;83.90;;;;;;4992051;28;20037;-64
2022/11/30 09:38:06;;;;;;;10.57;7.00;;;8.60;84.00;;;;;;4995853;28;20026;-64
2022/11/30 09:40:35;;;;;;;10.07;6.05;;;8.60;84.10;;;;;;5023760;28;20504;-64
2022/11/30 09:43:21;;;;;;;12.35;7.53;;;8.70;84.10;;;;;;4994099;28;20548;-64
2022/11/30 09:45:55;;;;;;;10.55;7.18;;;8.70;84.00;;;;;;4986178;28;20492;-64
2022/11/30 09:48:41;;;;;;;11.80;7.00;;;8.70;84.10;;;;;;4999590;28;20465;-63
2022/11/30 09:51:14;;;;;;;10.60;6.43;;;8.80;84.10;;;;;;5003197;28;20030;-63
2022/11/30 09:53:50;;;;;;;11.05;6.90;;;8.80;84.10;;;;;;4994887;28;20035;-65
2022/11/30 09:56:29;;;;;;;12.05;6.03;;;9.00;84.20;;;;;;5007106;28;20022;-59
2022/11/30 09:59:21;;;;;;;9.90;5.95;;;9.10;84.10;;;;;;5002960;28;20025;-59
2022/11/30 10:01:47;;;;;;;10.15;5.82;;;9.20;83.80;;;;;;4992804;28;20041;-59
2022/11/30 10:04:27;;;;;;;16.05;7.80;;;9.40;83.60;;;;;;5037643;28;20477;-60
2022/11/30 10:07:27;;;;;;;11.75;6.63;;;9.50;83.20;;;;;;4999944;28;20030;-59
2022/11/30 10:10:08;;;;;;;8.45;5.65;;;9.60;83.20;;;;;;4999549;28;20042;-59
2022/11/30 10:13:03;;;;;;;9.88;5.22;;;9.60;83.60;;;;;;4995391;28;20054;-60
2022/11/30 10:16:28;;;;;;;12.20;8.35;;;10.30;84.20;;;;;;4980732;28;20050;-60
2022/11/30 10:18:56;;;;;;;12.00;7.07;;;12.30;80.60;;;;;;5008643;28;20037;-60
2022/11/30 10:21:43;;;;;;;11.63;6.53;;;14.60;74.40;;;;;;5012900;28;20036;-60
2022/11/30 10:24:23;;;;;;;10.00;5.75;;;16.50;69.50;;;;;;4998313;28;20064;-60
2022/11/30 10:26:55;;;;;;;10.05;5.95;;;18.20;64.90;;;;;;4996044;28;20031;-60
2022/11/30 10:29:36;;;;;;;7.35;4.50;;;19.40;61.50;;;;;;4991542;28;20027;-66
2022/11/30 10:32:16;;;;;;;6.95;4.97;;;19.60;60.20;;;;;;4991979;28;20030;-66
2022/11/30 10:34:43;;;;;;;5.82;5.20;;;19.40;60.20;;;;;;5001085;28;20141;-66
2022/11/30 10:37:20;;;;;;;8.77;4.50;;;18.90;60.30;;;;;;4997596;28;20112;-66
2022/11/30 10:40:00;;;;;;;9.25;4.97;;;18.10;61.40;;;;;;5016803;28;20034;-66
2022/11/30 10:42:48;;;;;;;6.93;4.22;;;18.00;62.00;;;;;;4994939;28;20082;-66
2022/11/30 10:45:19;;;;;;;8.43;5.25;;;19.10;60.00;;;;;;4993973;28;20033;-66
2022/11/30 10:48:07;;;;;;;8.27;4.03;;;20.10;57.10;;;;;;5001569;28;20382;-66
2022/11/30 10:50:33;;;;;;;6.57;4.47;;;20.40;56.30;;;;;;4989429;28;20037;-66
2022/11/30 10:53:00;;;;;;;4.10;2.97;;;20.70;55.40;;;;;;4993930;28;20421;-66
2022/11/30 10:55:34;;;;;;;7.93;3.72;;;21.50;54.50;;;;;;5000527;28;20402;-66
2022/11/30 10:58:25;;;;;;;9.73;4.90;;;22.40;52.60;;;;;;4996750;28;20080;-66
2022/11/30 11:01:02;;;;;;;6.88;3.20;;;23.40;50.10;;;;;;4998800;28;20037;-60
2022/11/30 11:03:28;;;;;;;8.65;4.57;;;24.20;48.50;;;;;;4999936;28;20026;-61
2022/11/30 11:06:19;;;;;;;4.88;2.80;;;24.80;46.80;;;;;;4990842;28;20082;-61
2022/11/30 11:08:45;;;;;;;5.38;3.28;;;25.20;45.80;;;;;;4988924;28;20441;-64
2022/11/30 11:11:34;;;;;;;5.20;2.67;;;25.50;45.10;;;;;;4992884;28;20038;-64
2022/11/30 11:14:30;;;;;;;5.78;3.17;;;25.80;44.10;;;;;;4991743;28;20212;-67
2022/11/30 11:16:56;;;;;;;5.07;2.85;;;26.00;43.50;;;;;;5007835;28;20045;-66
2022/11/30 11:19:33;;;;;;;4.32;2.70;;;26.20;43.30;;;;;;4986799;28;20029;-67
2022/11/30 11:22:04;;;;;;;7.28;3.53;;;26.40;42.50;;;;;;5011624;28;20116;-66
2022/11/30 11:24:30;;;;;;;5.53;3.13;;;26.20;42.00;;;;;;5010953;28;20033;-65
2022/11/30 11:26:56;;;;;;;4.85;2.97;;;24.80;43.00;;;;;;5007526;28;20100;-66
2022/11/30 11:29:31;;;;;;;4.53;2.70;;;23.30;45.10;;;;;;4991622;28;20085;-59
2022/11/30 11:32:20;;;;;;;4.88;2.50;;;22.80;46.50;;;;;;4990997;28;20041;-59
2022/11/30 11:34:46;;;;;;;5.57;2.80;;;23.10;46.60;;;;;;4993133;28;20060;-65
2022/11/30 11:37:19;;;;;;;5.20;3.15;;;23.80;45.40;;;;;;4992501;28;20026;-65
2022/11/30 11:40:01;;;;;;;4.30;3.08;;;23.50;44.70;;;;;;4992948;28;20037;-59
2022/11/30 11:42:37;;;;;;;5.32;3.60;;;22.50;46.20;;;;;;4991055;28;20092;-65
2022/11/30 11:45:04;;;;;;;6.32;3.25;;;21.40;48.10;;;;;;4992097;28;20378;-65
2022/11/30 11:47:39;;;;;;;5.78;3.35;;;20.30;50.00;;;;;;4984309;28;20563;-59
2022/11/30 11:50:23;;;;;;;5.50;3.30;;;19.40;51.30;;;;;;4993144;28;20050;-59
2022/11/30 11:52:49;;;;;;;8.05;2.90;;;19.30;52.20;;;;;;4989305;28;20503;-59
2022/11/30 11:55:20;;;;;;;7.85;3.70;;;19.30;52.20;;;;;;4998641;28;20034;-60
2022/11/30 11:57:57;;;;;;;3.83;2.78;;;18.80;53.20;;;;;;5003291;28;20354;-59
2022/11/30 12:00:26;;;;;;;6.43;2.88;;;18.80;53.00;;;;;;5000578;28;20513;-64
2022/11/30 12:03:09;;;;;;;4.72;3.03;;;18.00;53.80;;;;;;4998257;28;20101;-64
2022/11/30 12:05:52;;;;;;;4.93;3.10;;;16.90;55.70;;;;;;5004677;28;20022;-64
2022/11/30 12:08:42;;;;;;;6.22;3.53;;;15.90;57.80;;;;;;5000559;28;20585;-65
2022/11/30 12:11:21;;;;;;;5.78;3.60;;;14.90;59.40;;;;;;4998532;28;20038;-65
2022/11/30 12:13:49;;;;;;;5.35;2.95;;;14.20;61.20;;;;;;4992555;28;20018;-65
2022/11/30 12:16:43;;;;;;;5.40;3.08;;;14.10;62.50;;;;;;4998671;28;20038;-65
2022/11/30 12:19:11;;;;;;;6.82;4.03;;;14.30;62.00;;;;;;4987900;28;20128;-65
2022/11/30 12:22:15;;;;;;;5.47;4.30;;;14.00;62.40;;;;;;5002920;28;20096;-65
2022/11/30 12:24:51;;;;;;;7.40;3.95;;;13.60;63.10;;;;;;4983778;28;20034;-65
2022/11/30 12:27:35;;;;;;;7.28;4.13;;;13.20;64.10;;;;;;4999734;28;20081;-60
2022/11/30 12:30:30;;;;;;;13.63;4.78;;;13.10;65.00;;;;;;4986341;28;20100;-60
2022/11/30 12:33:37;;;;;;;7.00;4.35;;;13.00;65.10;;;;;;4986882;28;20046;-60
2022/11/30 12:36:32;;;;;;;9.88;3.33;;;12.80;65.60;;;;;;5001289;28;20029;-60
2022/11/30 12:39:07;;;;;;;6.13;3.67;;;12.50;66.00;;;;;;4990712;28;20084;-62
2022/11/30 12:41:48;;;;;;;6.82;3.45;;;12.40;66.60;;;;;;4998099;28;20829;-59
2022/11/30 12:44:38;;;;;;;8.82;4.15;;;12.20;66.90;;;;;;4990726;28;20557;-59
2022/11/30 12:47:36;;;;;;;4.93;3.65;;;12.10;67.20;;;;;;5017169;28;20034;-60
2022/11/30 12:50:35;;;;;;;6.18;3.33;;;12.00;67.60;;;;;;5005073;28;20058;-59
2022/11/30 12:53:22;;;;;;;7.88;4.70;;;11.90;67.90;;;;;;4979444;28;20026;-59
2022/11/30 12:56:01;;;;;;;11.73;4.03;;;11.80;68.50;;;;;;4981135;28;20030;-59
2022/11/30 12:59:18;;;;;;;6.20;3.83;;;11.70;68.80;;;;;;5019045;28;20101;-59
2022/11/30 13:02:14;;;;;;;9.02;4.40;;;11.60;69.00;;;;;;4968230;28;20518;-60
2022/11/30 13:04:47;;;;;;;8.88;4.07;;;11.40;69.40;;;;;;4967258;28;20113;-59
2022/11/30 13:07:36;;;;;;;7.47;4.25;;;11.40;69.70;;;;;;4989606;28;20057;-59
2022/11/30 13:10:11;;;;;;;7.55;3.97;;;11.30;69.80;;;;;;4980067;28;20100;-60
2022/11/30 13:12:41;;;;;;;5.35;3.17;;;11.20;70.10;;;;;;4994561;28;20018;-61
2022/11/30 13:15:30;;;;;;;4.97;3.55;;;11.20;70.20;;;;;;5035087;28;20030;-60